sensor_id;sensor_type;location;lat;lon;timestamp;P1;durP1;ratioP1;P2;durP2;ratioP2
22861;SDS011;11598;50.652;6.172;2023-02-05T00:07:32;121.57;;;18.83;;
22861;SDS011;11598;50.652;6.172;2023-02-05T00:17:33;58.65;;;15.63;;
22861;SDS011;11598;50.652;6.172;2023-02-05T00:27:35;48.13;;;18.00;;
22861;SDS011;11598;50.652;6.172;2023-02-05T00:37:36;40.92;;;15.57;;
22861;SDS011;11598;50.652;6.172;2023-02-05T00:47:36;38.92;;;14.05;;
22861;SDS011;11598;50.652;6.172;2023-02-05T00:57:36;52.10;;;14.45;;
22861;SDS011;11598;50.652;6.172;2023-02-05T01:07:37;76.05;;;16.52;;
22861;SDS011;11598;50.652;6.172;2023-02-05T01:17:37;76.20;;;16.88;;
22861;SDS011;11598;50.652;6.172;2023-02-05T01:27:38;34.15;;;12.68;;
22861;SDS011;11598;50.652;6.172;2023-02-05T01:37:38;20.63;;;9.43;;
22861;SDS011;11598;50.652;6.172;2023-02-05T01:47:39;34.97;;;10.65;;
22861;SDS011;11598;50.652;6.172;2023-02-05T01:57:39;67.80;;;15.02;;
22861;SDS011;11598;50.652;6.172;2023-02-05T02:07:40;108.90;;;19.95;;
22861;SDS011;11598;50.652;6.172;2023-02-05T02:17:41;115.55;;;26.48;;
22861;SDS011;11598;50.652;6.172;2023-02-05T02:27:53;496.05;;;41.17;;
22861;SDS011;11598;50.652;6.172;2023-02-05T02:38:21;323.45;;;40.80;;
22861;SDS011;11598;50.652;6.172;2023-02-05T02:48:23;532.45;;;47.97;;
22861;SDS011;11598;50.652;6.172;2023-02-05T02:59:10;601.42;;;52.75;;
22861;SDS011;11598;50.652;6.172;2023-02-05T03:08:55;577.15;;;52.88;;
22861;SDS011;11598;50.652;6.172;2023-02-05T03:19:02;389.52;;;44.70;;
22861;SDS011;11598;50.652;6.172;2023-02-05T03:29:06;255.70;;;43.90;;
22861;SDS011;11598;50.652;6.172;2023-02-05T03:49:13;225.95;;;41.28;;
22861;SDS011;11598;50.652;6.172;2023-02-05T03:59:21;337.00;;;44.47;;
22861;SDS011;11598;50.652;6.172;2023-02-05T04:09:22;173.32;;;38.08;;
22861;SDS011;11598;50.652;6.172;2023-02-05T04:19:22;98.28;;;28.15;;
22861;SDS011;11598;50.652;6.172;2023-02-05T04:29:23;422.50;;;43.15;;
22861;SDS011;11598;50.652;6.172;2023-02-05T04:39:23;348.30;;;41.35;;
22861;SDS011;11598;50.652;6.172;2023-02-05T04:49:23;383.00;;;43.30;;
22861;SDS011;11598;50.652;6.172;2023-02-05T04:59:24;212.80;;;36.58;;
22861;SDS011;11598;50.652;6.172;2023-02-05T05:09:25;221.15;;;41.80;;
22861;SDS011;11598;50.652;6.172;2023-02-05T05:29:28;335.10;;;46.60;;
22861;SDS011;11598;50.652;6.172;2023-02-05T05:39:28;363.10;;;50.60;;
22861;SDS011;11598;50.652;6.172;2023-02-05T05:49:47;215.75;;;46.88;;
22861;SDS011;11598;50.652;6.172;2023-02-05T05:59:48;182.20;;;45.78;;
22861;SDS011;11598;50.652;6.172;2023-02-05T06:09:48;362.58;;;53.83;;
22861;SDS011;11598;50.652;6.172;2023-02-05T06:19:48;350.10;;;55.00;;
22861;SDS011;11598;50.652;6.172;2023-02-05T06:29:49;250.77;;;53.58;;
22861;SDS011;11598;50.652;6.172;2023-02-05T06:39:49;194.88;;;47.53;;
22861;SDS011;11598;50.652;6.172;2023-02-05T06:49:49;305.77;;;53.00;;
22861;SDS011;11598;50.652;6.172;2023-02-05T06:59:50;214.40;;;44.25;;
22861;SDS011;11598;50.652;6.172;2023-02-05T07:09:50;328.33;;;49.45;;
22861;SDS011;11598;50.652;6.172;2023-02-05T07:19:50;156.07;;;38.97;;
22861;SDS011;11598;50.652;6.172;2023-02-05T07:29:51;173.43;;;39.05;;
22861;SDS011;11598;50.652;6.172;2023-02-05T07:39:51;136.70;;;36.03;;
22861;SDS011;11598;50.652;6.172;2023-02-05T07:49:51;184.82;;;32.00;;
22861;SDS011;11598;50.652;6.172;2023-02-05T07:59:52;147.23;;;28.77;;
22861;SDS011;11598;50.652;6.172;2023-02-05T08:09:52;108.70;;;22.90;;
22861;SDS011;11598;50.652;6.172;2023-02-05T08:19:53;102.55;;;19.17;;
22861;SDS011;11598;50.652;6.172;2023-02-05T08:29:53;38.47;;;13.55;;
22861;SDS011;11598;50.652;6.172;2023-02-05T08:39:53;102.55;;;14.25;;
22861;SDS011;11598;50.652;6.172;2023-02-05T08:49:54;20.80;;;7.38;;
22861;SDS011;11598;50.652;6.172;2023-02-05T08:59:54;8.13;;;2.90;;
22861;SDS011;11598;50.652;6.172;2023-02-05T09:09:55;9.30;;;1.48;;
22861;SDS011;11598;50.652;6.172;2023-02-05T09:19:56;9.20;;;2.03;;
22861;SDS011;11598;50.652;6.172;2023-02-05T09:29:56;13.98;;;1.33;;
22861;SDS011;11598;50.652;6.172;2023-02-05T09:39:57;5.13;;;0.90;;
22861;SDS011;11598;50.652;6.172;2023-02-05T09:50:13;8.35;;;1.10;;
22861;SDS011;11598;50.652;6.172;2023-02-05T10:00:31;9.60;;;1.50;;
22861;SDS011;11598;50.652;6.172;2023-02-05T10:10:35;8.77;;;1.08;;
22861;SDS011;11598;50.652;6.172;2023-02-05T10:20:59;15.20;;;2.33;;
22861;SDS011;11598;50.652;6.172;2023-02-05T10:41:43;19.63;;;1.40;;
22861;SDS011;11598;50.652;6.172;2023-02-05T10:51:52;18.95;;;1.83;;
22861;SDS011;11598;50.652;6.172;2023-02-05T11:01:54;17.05;;;1.80;;
22861;SDS011;11598;50.652;6.172;2023-02-05T11:11:59;18.40;;;1.73;;
22861;SDS011;11598;50.652;6.172;2023-02-05T11:22:02;18.00;;;1.75;;
22861;SDS011;11598;50.652;6.172;2023-02-05T11:32:09;23.83;;;2.53;;
22861;SDS011;11598;50.652;6.172;2023-02-05T11:42:37;17.08;;;2.35;;
22861;SDS011;11598;50.652;6.172;2023-02-05T11:52:37;19.83;;;2.17;;
22861;SDS011;11598;50.652;6.172;2023-02-05T12:02:41;15.68;;;2.00;;
22861;SDS011;11598;50.652;6.172;2023-02-05T12:43:42;24.48;;;2.58;;
22861;SDS011;11598;50.652;6.172;2023-02-05T13:04:21;27.67;;;2.83;;
22861;SDS011;11598;50.652;6.172;2023-02-05T13:14:27;31.75;;;3.40;;
22861;SDS011;11598;50.652;6.172;2023-02-05T13:24:35;16.92;;;2.72;;
22861;SDS011;11598;50.652;6.172;2023-02-05T13:34:57;22.95;;;2.85;;
22861;SDS011;11598;50.652;6.172;2023-02-05T13:45:03;23.42;;;2.80;;
22861;SDS011;11598;50.652;6.172;2023-02-05T14:05:37;17.92;;;2.60;;
22861;SDS011;11598;50.652;6.172;2023-02-05T14:15:41;10.38;;;1.70;;
22861;SDS011;11598;50.652;6.172;2023-02-05T14:46:27;9.05;;;1.58;;
22861;SDS011;11598;50.652;6.172;2023-02-05T14:56:41;15.35;;;1.52;;
22861;SDS011;11598;50.652;6.172;2023-02-05T15:06:45;21.10;;;2.70;;
22861;SDS011;11598;50.652;6.172;2023-02-05T15:16:47;23.20;;;3.10;;
22861;SDS011;11598;50.652;6.172;2023-02-05T15:27:14;33.57;;;2.93;;
22861;SDS011;11598;50.652;6.172;2023-02-05T15:37:35;25.27;;;3.25;;
22861;SDS011;11598;50.652;6.172;2023-02-05T15:47:40;21.67;;;2.85;;
22861;SDS011;11598;50.652;6.172;2023-02-05T15:57:41;30.90;;;3.78;;
22861;SDS011;11598;50.652;6.172;2023-02-05T16:07:44;20.25;;;2.80;;
22861;SDS011;11598;50.652;6.172;2023-02-05T16:17:50;20.58;;;2.90;;
22861;SDS011;11598;50.652;6.172;2023-02-05T16:27:52;18.88;;;2.42;;
22861;SDS011;11598;50.652;6.172;2023-02-05T16:37:55;23.40;;;3.13;;
22861;SDS011;11598;50.652;6.172;2023-02-05T16:58:23;31.92;;;3.22;;
22861;SDS011;11598;50.652;6.172;2023-02-05T17:08:34;24.73;;;3.30;;
22861;SDS011;11598;50.652;6.172;2023-02-05T17:18:36;25.25;;;3.40;;
22861;SDS011;11598;50.652;6.172;2023-02-05T17:28:36;21.02;;;3.33;;
22861;SDS011;11598;50.652;6.172;2023-02-05T17:38:42;22.08;;;3.28;;
22861;SDS011;11598;50.652;6.172;2023-02-05T17:48:43;28.77;;;3.88;;
22861;SDS011;11598;50.652;6.172;2023-02-05T17:58:43;30.95;;;4.30;;
22861;SDS011;11598;50.652;6.172;2023-02-05T18:08:44;21.73;;;4.03;;
22861;SDS011;11598;50.652;6.172;2023-02-05T18:18:44;34.38;;;3.72;;
22861;SDS011;11598;50.652;6.172;2023-02-05T18:28:46;20.92;;;3.90;;
22861;SDS011;11598;50.652;6.172;2023-02-05T18:38:46;26.63;;;3.67;;
22861;SDS011;11598;50.652;6.172;2023-02-05T18:48:47;24.85;;;4.32;;
22861;SDS011;11598;50.652;6.172;2023-02-05T18:58:51;22.70;;;3.97;;
22861;SDS011;11598;50.652;6.172;2023-02-05T19:08:54;22.52;;;3.42;;
22861;SDS011;11598;50.652;6.172;2023-02-05T19:18:55;31.43;;;4.10;;
22861;SDS011;11598;50.652;6.172;2023-02-05T19:28:57;22.40;;;3.72;;
22861;SDS011;11598;50.652;6.172;2023-02-05T19:39:00;25.45;;;4.22;;
22861;SDS011;11598;50.652;6.172;2023-02-05T19:49:06;25.92;;;4.38;;
22861;SDS011;11598;50.652;6.172;2023-02-05T19:59:11;28.38;;;3.53;;
22861;SDS011;11598;50.652;6.172;2023-02-05T20:09:12;31.63;;;3.53;;
22861;SDS011;11598;50.652;6.172;2023-02-05T20:29:15;33.45;;;4.40;;
22861;SDS011;11598;50.652;6.172;2023-02-05T20:39:36;26.27;;;3.65;;
22861;SDS011;11598;50.652;6.172;2023-02-05T20:49:40;37.38;;;4.28;;
22861;SDS011;11598;50.652;6.172;2023-02-05T20:59:41;30.63;;;3.80;;
22861;SDS011;11598;50.652;6.172;2023-02-05T21:09:41;29.73;;;4.93;;
22861;SDS011;11598;50.652;6.172;2023-02-05T21:19:42;30.85;;;4.03;;
22861;SDS011;11598;50.652;6.172;2023-02-05T21:29:42;27.80;;;4.45;;
22861;SDS011;11598;50.652;6.172;2023-02-05T21:39:42;33.58;;;4.07;;
22861;SDS011;11598;50.652;6.172;2023-02-05T21:49:43;32.58;;;5.70;;
22861;SDS011;11598;50.652;6.172;2023-02-05T21:59:43;34.42;;;3.90;;
22861;SDS011;11598;50.652;6.172;2023-02-05T22:09:43;27.70;;;4.70;;
22861;SDS011;11598;50.652;6.172;2023-02-05T22:19:44;31.08;;;3.63;;
22861;SDS011;11598;50.652;6.172;2023-02-05T22:29:44;28.15;;;3.88;;
22861;SDS011;11598;50.652;6.172;2023-02-05T22:39:46;40.75;;;5.10;;
22861;SDS011;11598;50.652;6.172;2023-02-05T22:49:46;28.95;;;4.50;;
22861;SDS011;11598;50.652;6.172;2023-02-05T22:59:47;30.38;;;4.45;;
22861;SDS011;11598;50.652;6.172;2023-02-05T23:09:47;37.47;;;5.20;;
22861;SDS011;11598;50.652;6.172;2023-02-05T23:19:51;34.90;;;5.60;;
22861;SDS011;11598;50.652;6.172;2023-02-05T23:29:51;29.40;;;5.18;;
22861;SDS011;11598;50.652;6.172;2023-02-05T23:39:51;36.78;;;5.75;;
22861;SDS011;11598;50.652;6.172;2023-02-05T23:49:52;52.83;;;6.25;;
22861;SDS011;11598;50.652;6.172;2023-02-05T23:59:52;42.28;;;6.88;;
